Time;durP1;ratioP1;P1;durP2;ratioP2;P2;SDS_P1;SDS_P2;PMS_P1;PMS_P2;Temp;Humidity;BMP_temperature;BMP_pressure;BME280_temperature;BME280_humidity;BME280_pressure;Samples;Min_cycle;Max_cycle;Signal;HPM_P1;HPM_P2
2022/10/12 00:02:22;;;;;;;40.30;25.97;;;15.90;85.60;;;;;;5063135;28;20634;-66
2022/10/12 00:04:50;;;;;;;30.97;24.30;;;15.90;85.70;;;;;;5063822;28;20630;-66
2022/10/12 00:07:17;;;;;;;33.07;24.47;;;15.90;85.90;;;;;;5058573;28;20210;-65
2022/10/12 00:09:44;;;;;;;30.63;24.40;;;15.90;85.90;;;;;;5058541;28;20224;-66
2022/10/12 00:12:11;;;;;;;36.30;23.40;;;15.90;86.00;;;;;;5065877;28;20282;-66
2022/10/12 00:14:38;;;;;;;34.00;23.23;;;15.90;86.00;;;;;;5059479;28;20530;-66
2022/10/12 00:17:05;;;;;;;33.30;23.57;;;15.90;86.00;;;;;;5060366;28;20241;-65
2022/10/12 00:19:32;;;;;;;32.60;23.03;;;15.90;86.00;;;;;;5043899;28;20198;-66
2022/10/12 00:21:59;;;;;;;27.07;23.10;;;15.80;86.00;;;;;;5054460;28;20222;-66
2022/10/12 00:24:26;;;;;;;31.53;23.97;;;15.80;86.00;;;;;;5061533;28;20657;-66
2022/10/12 00:26:53;;;;;;;32.83;23.50;;;15.80;86.20;;;;;;5062781;28;20249;-65
2022/10/12 00:29:20;;;;;;;28.87;23.47;;;15.80;86.40;;;;;;5062799;28;20516;-66
2022/10/12 00:31:47;;;;;;;30.97;24.17;;;15.80;86.40;;;;;;5059814;28;20206;-66
2022/10/12 00:34:14;;;;;;;30.33;21.83;;;15.70;86.20;;;;;;5047298;28;20201;-66
2022/10/12 00:36:41;;;;;;;30.53;24.30;;;15.70;86.20;;;;;;5054660;28;20295;-66
2022/10/12 00:39:09;;;;;;;27.83;22.43;;;15.70;86.20;;;;;;5057955;28;20535;-66
2022/10/12 00:41:40;;;;;;;31.80;23.63;;;15.70;86.30;;;;;;5054562;28;20641;-66
2022/10/12 00:44:40;;;;;;;31.63;22.37;;;15.60;86.30;;;;;;5061604;28;20585;-66
2022/10/12 00:47:34;;;;;;;30.70;22.87;;;15.60;86.60;;;;;;5060937;28;20277;-66
2022/10/12 00:50:20;;;;;;;35.90;23.63;;;15.60;86.80;;;;;;5051625;28;20224;-66
2022/10/12 00:52:51;;;;;;;30.13;23.23;;;15.60;86.80;;;;;;5057606;28;20212;-65
2022/10/12 00:55:21;;;;;;;36.20;23.37;;;15.60;86.90;;;;;;5059251;28;20252;-66
2022/10/12 00:57:50;;;;;;;31.83;25.57;;;15.60;87.10;;;;;;5062963;28;20636;-66
2022/10/12 01:00:18;;;;;;;32.80;25.53;;;15.60;87.10;;;;;;5061863;28;20228;-66
2022/10/12 01:02:48;;;;;;;38.53;24.57;;;15.60;87.20;;;;;;5061443;28;20592;-66
2022/10/12 01:05:17;;;;;;;28.77;23.13;;;15.60;87.10;;;;;;5059663;28;20298;-66
2022/10/12 01:07:44;;;;;;;34.27;24.00;;;15.60;87.20;;;;;;5054741;28;20691;-66
2022/10/12 01:10:11;;;;;;;31.77;24.80;;;15.60;87.30;;;;;;5057577;28;20662;-66
2022/10/12 01:12:41;;;;;;;35.17;26.33;;;15.60;87.40;;;;;;5061922;28;20198;-66
2022/10/12 01:15:10;;;;;;;34.00;23.83;;;15.60;87.50;;;;;;5058517;28;20617;-66
2022/10/12 01:17:37;;;;;;;37.17;24.77;;;15.60;87.40;;;;;;5061367;28;20608;-65
2022/10/12 01:20:26;;;;;;;36.17;24.73;;;15.60;87.40;;;;;;5060948;28;20209;-66
2022/10/12 01:23:17;;;;;;;32.60;25.37;;;15.60;87.40;;;;;;5060290;28;20278;-66
2022/10/12 01:26:13;;;;;;;38.37;24.20;;;15.50;87.40;;;;;;5059696;28;20198;-66
2022/10/12 01:28:55;;;;;;;35.33;24.57;;;15.50;87.40;;;;;;5058177;28;20197;-66
2022/10/12 01:31:41;;;;;;;32.13;25.13;;;15.50;87.50;;;;;;5058217;28;20198;-66
2022/10/12 01:34:10;;;;;;;33.43;26.13;;;15.50;87.40;;;;;;5056871;28;20186;-66
2022/10/12 01:36:48;;;;;;;32.50;25.33;;;15.40;87.50;;;;;;5061142;28;20650;-66
2022/10/12 01:39:37;;;;;;;33.40;24.70;;;15.40;87.60;;;;;;5059595;28;20588;-66
2022/10/12 01:42:10;;;;;;;39.03;24.77;;;15.40;87.70;;;;;;5062536;28;20216;-66
2022/10/12 01:44:37;;;;;;;33.60;25.03;;;15.40;87.70;;;;;;5045264;28;20214;-66
2022/10/12 01:47:08;;;;;;;29.30;23.77;;;15.40;87.60;;;;;;5053293;28;20256;-66
2022/10/12 01:49:36;;;;;;;29.43;24.07;;;15.40;87.50;;;;;;5060472;28;20564;-65
2022/10/12 01:52:21;;;;;;;35.53;26.17;;;15.40;87.60;;;;;;5060793;28;20262;-66
2022/10/12 01:54:57;;;;;;;34.67;27.17;;;15.30;87.60;;;;;;5035627;28;20237;-66
2022/10/12 01:57:31;;;;;;;39.07;26.33;;;15.30;87.70;;;;;;5057965;28;20281;-66
2022/10/12 02:00:10;;;;;;;36.70;26.33;;;15.30;87.80;;;;;;5060149;28;20240;-66
2022/10/12 02:03:01;;;;;;;42.13;28.67;;;15.30;87.80;;;;;;5060232;28;20225;-66
2022/10/12 02:05:51;;;;;;;35.07;27.70;;;15.30;87.80;;;;;;5060319;28;20202;-66
2022/10/12 02:08:24;;;;;;;38.47;25.93;;;15.30;87.90;;;;;;5048450;28;20299;-66
2022/10/12 02:11:09;;;;;;;35.20;26.90;;;15.30;87.90;;;;;;5058017;28;20240;-66
2022/10/12 02:14:03;;;;;;;37.97;28.97;;;15.30;88.10;;;;;;5061112;28;20583;-66
2022/10/12 02:16:40;;;;;;;37.40;27.80;;;15.20;88.10;;;;;;5058238;28;20251;-66
2022/10/12 02:19:10;;;;;;;38.60;28.90;;;15.20;88.90;;;;;;5059099;28;20519;-66
2022/10/12 02:21:38;;;;;;;37.30;26.50;;;15.20;88.30;;;;;;5059222;28;20194;-66
2022/10/12 02:24:08;;;;;;;34.17;26.00;;;15.20;88.40;;;;;;5043204;28;20590;-66
2022/10/12 02:26:40;;;;;;;39.23;28.27;;;15.10;88.40;;;;;;5057690;28;20193;-66
2022/10/12 02:29:12;;;;;;;40.60;28.40;;;15.10;88.40;;;;;;5061071;28;20194;-66
2022/10/12 02:31:48;;;;;;;38.50;27.77;;;15.10;88.30;;;;;;5058304;28;20263;-66
2022/10/12 02:34:18;;;;;;;38.00;27.53;;;15.10;88.20;;;;;;5060878;28;20263;-66
2022/10/12 02:36:55;;;;;;;34.43;27.77;;;15.10;88.20;;;;;;5058517;28;20198;-66
2022/10/12 02:39:30;;;;;;;43.37;28.33;;;15.10;88.40;;;;;;5055449;28;20206;-65
2022/10/12 02:42:04;;;;;;;47.33;29.83;;;15.10;88.50;;;;;;5039687;28;20634;-66
2022/10/12 02:44:36;;;;;;;45.10;29.13;;;15.00;88.50;;;;;;5062529;28;20251;-66
2022/10/12 02:47:05;;;;;;;36.63;28.57;;;15.00;88.50;;;;;;5056316;28;20601;-66
2022/10/12 02:49:34;;;;;;;35.83;27.90;;;15.00;88.60;;;;;;5058303;28;20631;-65
2022/10/12 02:52:04;;;;;;;40.47;27.53;;;15.00;88.60;;;;;;5058437;28;20202;-66
2022/10/12 02:54:31;;;;;;;42.93;29.90;;;15.00;88.60;;;;;;5057947;28;20194;-66
2022/10/12 02:56:58;;;;;;;42.03;30.37;;;15.00;88.70;;;;;;5058222;28;20613;-66
2022/10/12 02:59:25;;;;;;;43.00;30.37;;;15.00;88.80;;;;;;5058743;28;20215;-66
2022/10/12 03:01:52;;;;;;;44.00;31.07;;;15.00;88.70;;;;;;5061339;28;20375;-66
2022/10/12 03:04:19;;;;;;;45.90;31.97;;;14.90;88.60;;;;;;5051734;28;20263;-66
2022/10/12 03:06:46;;;;;;;40.73;30.07;;;15.00;88.50;;;;;;5058057;28;20210;-66
2022/10/12 03:09:13;;;;;;;42.63;31.10;;;14.90;88.40;;;;;;5055713;28;20461;-66
2022/10/12 03:11:43;;;;;;;45.33;31.53;;;14.90;88.50;;;;;;5057513;28;20255;-66
2022/10/12 03:14:13;;;;;;;38.13;30.60;;;14.90;88.60;;;;;;5057532;28;20224;-66
2022/10/12 03:16:41;;;;;;;42.30;32.67;;;14.90;88.80;;;;;;5060303;28;20227;-66
2022/10/12 03:19:08;;;;;;;44.73;29.97;;;14.90;88.80;;;;;;5052717;28;20267;-65
2022/10/12 03:21:35;;;;;;;42.80;30.43;;;14.90;88.80;;;;;;5059931;28;20263;-65
2022/10/12 03:24:02;;;;;;;57.70;32.73;;;14.90;88.80;;;;;;5056971;28;20194;-66
2022/10/12 03:26:29;;;;;;;41.50;32.23;;;14.90;88.80;;;;;;5058028;28;20271;-66
2022/10/12 03:28:56;;;;;;;48.93;33.80;;;14.80;88.70;;;;;;5060585;28;20209;-66
2022/10/12 03:31:23;;;;;;;49.53;32.93;;;14.80;88.70;;;;;;5059262;28;20292;-66
2022/10/12 03:33:50;;;;;;;43.23;31.83;;;14.80;88.80;;;;;;5043124;28;20236;-66
2022/10/12 03:36:17;;;;;;;44.43;32.37;;;14.80;89.00;;;;;;5056694;28;20209;-66
2022/10/12 03:38:45;;;;;;;59.33;34.90;;;14.80;89.30;;;;;;5044746;28;20606;-65
2022/10/12 03:41:12;;;;;;;47.73;33.37;;;14.70;89.30;;;;;;5058139;28;20213;-66
2022/10/12 03:43:39;;;;;;;46.20;34.67;;;14.80;89.50;;;;;;5051972;28;20281;-66
2022/10/12 03:46:06;;;;;;;49.47;35.37;;;14.80;89.60;;;;;;5041693;28;20206;-66
2022/10/12 03:48:33;;;;;;;54.30;36.47;;;14.80;89.60;;;;;;5041386;28;20294;-66
2022/10/12 03:51:00;;;;;;;50.77;36.47;;;14.80;89.70;;;;;;5039529;28;20282;-66
2022/10/12 03:53:27;;;;;;;52.43;35.13;;;14.80;89.90;;;;;;5039005;28;20216;-65
2022/10/12 03:55:54;;;;;;;46.47;33.53;;;14.80;89.90;;;;;;5059149;28;20214;-66
2022/10/12 03:58:21;;;;;;;59.87;35.83;;;14.80;89.90;;;;;;5063733;28;20525;-66
2022/10/12 04:00:52;;;;;;;52.73;35.90;;;14.70;89.90;;;;;;5063199;28;20204;-66
2022/10/12 04:03:19;;;;;;;48.03;38.73;;;14.80;90.00;;;;;;5060469;28;20202;-66
2022/10/12 04:05:57;;;;;;;48.47;36.30;;;14.80;90.00;;;;;;5060657;28;20205;-66
2022/10/12 04:08:25;;;;;;;51.67;37.17;;;14.80;90.00;;;;;;5042961;28;20592;-66
2022/10/12 04:10:53;;;;;;;47.73;35.63;;;14.80;90.00;;;;;;5060442;28;20642;-66
2022/10/12 04:13:20;;;;;;;59.00;35.00;;;14.80;90.00;;;;;;5055703;28;20270;-66
2022/10/12 04:15:47;;;;;;;57.93;36.10;;;14.80;90.00;;;;;;5061807;28;20269;-66
2022/10/12 04:18:14;;;;;;;48.53;34.80;;;14.70;90.00;;;;;;5046481;28;20210;-66
2022/10/12 04:20:41;;;;;;;55.93;35.50;;;14.70;90.00;;;;;;5061507;28;20209;-66
2022/10/12 04:23:08;;;;;;;48.50;35.53;;;14.70;90.00;;;;;;5063948;28;20205;-65
2022/10/12 04:25:35;;;;;;;46.93;32.40;;;14.60;90.10;;;;;;5057647;28;20217;-65
2022/10/12 04:28:02;;;;;;;46.67;34.70;;;14.70;90.10;;;;;;5062973;28;20658;-66
2022/10/12 04:30:29;;;;;;;54.83;34.83;;;14.60;90.10;;;;;;5061519;28;20199;-66
2022/10/12 04:32:56;;;;;;;50.83;35.77;;;14.60;90.00;;;;;;5063323;28;20560;-66
2022/10/12 04:35:23;;;;;;;49.53;35.07;;;14.60;90.30;;;;;;5044933;28;20205;-66
2022/10/12 04:37:50;;;;;;;45.17;34.60;;;14.50;90.00;;;;;;5061915;28;20205;-66
2022/10/12 04:40:17;;;;;;;55.97;37.70;;;14.50;90.10;;;;;;5060858;28;20206;-66
2022/10/12 04:42:44;;;;;;;47.97;35.80;;;14.50;90.20;;;;;;5058263;28;20287;-66
2022/10/12 04:45:11;;;;;;;45.43;34.40;;;14.50;90.20;;;;;;5059000;28;20209;-66
2022/10/12 04:47:38;;;;;;;44.83;32.77;;;14.50;90.30;;;;;;5058697;28;20256;-66
2022/10/12 04:50:06;;;;;;;50.63;32.87;;;14.50;90.30;;;;;;5047229;28;20216;-66
2022/10/12 04:52:33;;;;;;;45.47;32.80;;;14.50;90.30;;;;;;5063194;28;20671;-65
2022/10/12 04:55:00;;;;;;;43.13;32.67;;;14.40;90.20;;;;;;5062866;28;20201;-66
2022/10/12 04:57:27;;;;;;;49.47;34.77;;;14.40;90.20;;;;;;5060389;28;20241;-66
2022/10/12 04:59:54;;;;;;;54.57;33.73;;;14.30;90.10;;;;;;5061658;28;20240;-66
2022/10/12 05:02:21;;;;;;;48.03;33.60;;;14.30;90.10;;;;;;5044501;28;20206;-66
2022/10/12 05:04:48;;;;;;;49.27;35.87;;;14.30;90.10;;;;;;5051240;28;20641;-66
2022/10/12 05:07:15;;;;;;;45.47;34.63;;;14.30;90.10;;;;;;5060742;28;20214;-66
2022/10/12 05:09:42;;;;;;;49.53;34.50;;;14.30;90.20;;;;;;5046887;28;20627;-66
2022/10/12 05:12:09;;;;;;;52.13;34.73;;;14.30;90.20;;;;;;5059535;28;20202;-66
2022/10/12 05:14:37;;;;;;;54.70;35.37;;;14.30;90.30;;;;;;5045216;28;20702;-65
2022/10/12 05:17:04;;;;;;;50.83;35.60;;;14.30;90.30;;;;;;5061121;28;20208;-66
2022/10/12 05:19:31;;;;;;;47.30;34.63;;;14.30;90.40;;;;;;5060698;28;20204;-66
2022/10/12 05:21:58;;;;;;;53.43;35.97;;;14.30;90.50;;;;;;5063838;28;20209;-65
2022/10/12 05:24:25;;;;;;;46.53;33.40;;;14.30;90.50;;;;;;5060856;28;20201;-65
2022/10/12 05:26:52;;;;;;;46.07;34.93;;;14.30;90.60;;;;;;5059632;28;20271;-65
2022/10/12 05:29:19;;;;;;;50.07;34.37;;;14.30;90.60;;;;;;5061795;28;20270;-65
2022/10/12 05:31:46;;;;;;;53.50;34.60;;;14.40;90.60;;;;;;5059154;28;20685;-65
2022/10/12 05:34:13;;;;;;;49.40;35.03;;;14.30;90.60;;;;;;5048479;28;20216;-65
2022/10/12 05:36:40;;;;;;;50.37;34.83;;;14.40;90.70;;;;;;5057088;28;20209;-65
2022/10/12 05:39:07;;;;;;;45.90;33.00;;;14.40;90.70;;;;;;5044494;28;20222;-65
2022/10/12 05:41:34;;;;;;;49.27;36.17;;;14.40;90.70;;;;;;5058551;28;20205;-65
2022/10/12 05:44:01;;;;;;;49.27;35.40;;;14.40;90.80;;;;;;5060695;28;20243;-65
2022/10/12 05:46:28;;;;;;;49.90;35.83;;;14.40;90.80;;;;;;5057935;28;20220;-65
2022/10/12 05:48:55;;;;;;;49.70;36.53;;;14.50;90.90;;;;;;5059994;28;20235;-65
2022/10/12 05:51:22;;;;;;;47.77;35.67;;;14.50;90.90;;;;;;5060872;28;20209;-65
2022/10/12 05:53:54;;;;;;;52.77;37.10;;;14.50;90.90;;;;;;5053173;28;20201;-65
2022/10/12 05:56:21;;;;;;;57.97;38.10;;;14.60;91.00;;;;;;5059958;28;20295;-65
2022/10/12 05:58:48;;;;;;;50.30;35.87;;;14.60;91.00;;;;;;5060073;28;20195;-65
2022/10/12 06:01:15;;;;;;;51.63;37.13;;;14.60;91.10;;;;;;5053104;28;20209;-65
2022/10/12 06:03:42;;;;;;;54.43;36.20;;;14.70;91.10;;;;;;5056832;28;20206;-65
2022/10/12 06:06:10;;;;;;;53.93;37.00;;;14.80;91.20;;;;;;5053145;28;20281;-65
2022/10/12 06:08:37;;;;;;;55.10;36.87;;;14.80;91.30;;;;;;5059685;28;20683;-65
2022/10/12 06:11:04;;;;;;;50.57;35.63;;;14.90;91.30;;;;;;5046829;28;20241;-65
2022/10/12 06:13:31;;;;;;;54.87;36.93;;;15.00;91.30;;;;;;5045780;28;20198;-65
2022/10/12 06:15:58;;;;;;;47.73;35.63;;;15.10;91.30;;;;;;5042226;28;20252;-65
2022/10/12 06:18:25;;;;;;;50.07;35.77;;;15.20;91.30;;;;;;5057862;28;20206;-65
2022/10/12 06:20:53;;;;;;;49.90;35.10;;;15.20;91.30;;;;;;5046721;28;20238;-65
2022/10/12 06:23:40;;;;;;;52.03;35.40;;;15.30;91.30;;;;;;5059668;28;20696;-65
2022/10/12 06:26:07;;;;;;;45.00;36.07;;;15.40;91.20;;;;;;5056999;28;20197;-65
2022/10/12 06:28:34;;;;;;;47.53;35.67;;;15.50;91.20;;;;;;5052502;28;20215;-65
2022/10/12 06:31:01;;;;;;;51.23;36.37;;;15.60;91.10;;;;;;5059975;28;20216;-65
2022/10/12 06:33:29;;;;;;;48.20;35.27;;;15.70;91.00;;;;;;5060798;28;20197;-65
2022/10/12 06:35:56;;;;;;;51.60;35.63;;;15.80;90.90;;;;;;5058362;28;20213;-65
2022/10/12 06:38:23;;;;;;;55.10;35.77;;;15.90;90.80;;;;;;5059497;28;20666;-65
2022/10/12 06:40:52;;;;;;;52.20;36.50;;;15.90;90.70;;;;;;5056363;28;20222;-65
2022/10/12 06:43:21;;;;;;;51.27;35.37;;;16.00;90.70;;;;;;5058805;28;20522;-65
2022/10/12 06:45:49;;;;;;;48.13;35.00;;;16.00;90.60;;;;;;5058559;28;20212;-65
2022/10/12 06:48:16;;;;;;;48.03;35.40;;;16.10;90.50;;;;;;5059121;28;20254;-65
2022/10/12 06:50:46;;;;;;;47.53;33.87;;;16.20;90.40;;;;;;5061271;28;20286;-65
2022/10/12 06:53:13;;;;;;;50.30;34.93;;;16.20;90.30;;;;;;5059241;28;20256;-65
2022/10/12 06:55:40;;;;;;;51.93;34.80;;;16.30;90.20;;;;;;5057423;28;20254;-65
2022/10/12 06:58:07;;;;;;;45.70;33.90;;;16.40;90.20;;;;;;5054943;28;20239;-65
2022/10/12 07:00:35;;;;;;;47.67;35.67;;;16.40;90.00;;;;;;5059191;28;20241;-65
2022/10/12 07:03:02;;;;;;;50.93;34.83;;;16.50;89.80;;;;;;5057356;28;20203;-65
2022/10/12 07:05:29;;;;;;;48.03;34.77;;;16.50;89.70;;;;;;5056598;28;20271;-65
2022/10/12 07:07:56;;;;;;;51.77;35.90;;;16.60;89.50;;;;;;5061160;28;20284;-65
2022/10/12 07:10:24;;;;;;;46.97;34.70;;;16.70;89.30;;;;;;5058863;28;20565;-65
2022/10/12 07:12:51;;;;;;;44.47;34.43;;;16.80;89.20;;;;;;5059212;28;20224;-65
2022/10/12 07:15:18;;;;;;;40.93;32.67;;;16.80;88.90;;;;;;5051826;28;20194;-65
2022/10/12 07:17:45;;;;;;;49.50;32.83;;;16.90;88.60;;;;;;5058064;28;20194;-65
2022/10/12 07:20:12;;;;;;;42.33;31.23;;;16.90;88.30;;;;;;5057041;28;20190;-66
2022/10/12 07:22:39;;;;;;;42.70;31.67;;;17.00;87.80;;;;;;5063260;28;20297;-65
2022/10/12 07:25:06;;;;;;;48.70;30.93;;;17.10;87.60;;;;;;5059989;28;20602;-65
2022/10/12 07:27:33;;;;;;;39.37;31.70;;;17.10;86.60;;;;;;5052477;28;20607;-65
2022/10/12 07:30:01;;;;;;;44.40;30.60;;;17.10;86.30;;;;;;5061051;28;21089;-65
2022/10/12 07:32:28;;;;;;;44.03;33.50;;;17.20;86.40;;;;;;5062989;28;20212;-65
2022/10/12 07:34:55;;;;;;;49.00;31.67;;;17.20;86.40;;;;;;5057263;28;20292;-65
2022/10/12 07:37:22;;;;;;;39.07;31.43;;;17.20;86.60;;;;;;5064285;28;20225;-66
2022/10/12 07:39:55;;;;;;;46.27;32.07;;;17.30;86.50;;;;;;5064245;28;20592;-65
2022/10/12 07:42:23;;;;;;;41.73;31.10;;;17.40;86.10;;;;;;5055288;28;20212;-62
2022/10/12 07:44:51;;;;;;;44.47;32.27;;;17.50;85.90;;;;;;5063660;28;20209;-65
2022/10/12 07:47:18;;;;;;;41.27;31.07;;;17.60;85.60;;;;;;5061886;28;20647;-66
2022/10/12 07:49:45;;;;;;;39.23;30.70;;;17.70;85.60;;;;;;5055545;28;20262;-64
2022/10/12 07:52:12;;;;;;;38.53;30.63;;;17.80;85.40;;;;;;5061996;28;20195;-69
2022/10/12 07:54:39;;;;;;;37.00;28.10;;;17.90;85.20;;;;;;5061920;28;20196;-65
2022/10/12 07:57:07;;;;;;;35.93;28.67;;;18.00;84.90;;;;;;5062561;28;20258;-65
2022/10/12 07:59:34;;;;;;;36.43;27.53;;;18.10;84.50;;;;;;5051679;28;20207;-66
2022/10/12 08:02:01;;;;;;;36.57;26.57;;;18.20;83.90;;;;;;5062949;28;20206;-66
2022/10/12 08:04:28;;;;;;;35.73;28.53;;;18.30;83.70;;;;;;5061438;28;20275;-65
2022/10/12 08:06:56;;;;;;;36.87;27.70;;;18.40;83.40;;;;;;5062728;28;20206;-65
2022/10/12 08:09:23;;;;;;;39.07;26.73;;;18.50;83.20;;;;;;5063864;28;20245;-64
2022/10/12 08:11:50;;;;;;;35.37;27.47;;;18.60;82.90;;;;;;5060569;28;20604;-64
2022/10/12 08:14:17;;;;;;;37.67;26.37;;;18.70;82.30;;;;;;5059204;28;20637;-66
2022/10/12 08:16:44;;;;;;;32.50;25.53;;;18.80;81.40;;;;;;5060090;28;20283;-64
2022/10/12 08:19:12;;;;;;;34.07;25.50;;;18.80;81.10;;;;;;5060213;28;20560;-65
2022/10/12 08:21:41;;;;;;;46.43;26.10;;;18.90;81.00;;;;;;5058957;28;20205;-65
2022/10/12 08:24:12;;;;;;;37.97;27.47;;;19.00;80.70;;;;;;5054926;28;20237;-67
2022/10/12 08:26:39;;;;;;;35.43;25.97;;;19.10;80.60;;;;;;5061364;28;20203;-64
2022/10/12 08:29:07;;;;;;;31.93;23.00;;;19.20;80.50;;;;;;5060869;28;20229;-64
2022/10/12 08:31:34;;;;;;;33.23;23.20;;;19.30;80.20;;;;;;5061344;28;20299;-66
2022/10/12 08:34:02;;;;;;;37.43;23.33;;;19.40;79.80;;;;;;5055897;28;20606;-66
2022/10/12 08:36:29;;;;;;;31.37;22.63;;;19.50;79.50;;;;;;5061350;28;20263;-67
2022/10/12 08:38:56;;;;;;;31.10;21.77;;;19.70;78.50;;;;;;5061113;28;20265;-65
2022/10/12 08:41:35;;;;;;;30.70;21.50;;;19.80;77.80;;;;;;5056605;28;20207;-64
2022/10/12 08:44:22;;;;;;;28.90;19.87;;;20.00;77.70;;;;;;5061423;28;20200;-65
2022/10/12 08:46:59;;;;;;;29.40;19.60;;;20.30;76.60;;;;;;5031945;28;20255;-66
2022/10/12 08:49:28;;;;;;;35.33;21.30;;;20.40;75.30;;;;;;5061295;28;20211;-64
2022/10/12 08:51:58;;;;;;;39.63;21.43;;;20.40;74.90;;;;;;5057304;28;20257;-67
2022/10/12 08:54:32;;;;;;;39.70;21.93;;;20.50;75.30;;;;;;5059574;28;20201;-65
2022/10/12 08:56:59;;;;;;;41.87;25.37;;;20.50;75.70;;;;;;5057942;28;20252;-64
2022/10/12 08:59:28;;;;;;;37.30;23.47;;;20.50;75.50;;;;;;5059357;28;20241;-67
2022/10/12 09:01:55;;;;;;;34.50;22.73;;;20.50;75.60;;;;;;5047769;28;20278;-67
2022/10/12 09:04:53;;;;;;;32.27;21.87;;;20.60;75.90;;;;;;5055165;28;20260;-64
2022/10/12 09:07:28;;;;;;;38.30;22.80;;;20.70;76.00;;;;;;5060800;28;20289;-67
2022/10/12 09:10:24;;;;;;;33.20;21.73;;;20.70;75.50;;;;;;5050772;28;20225;-65
2022/10/12 09:13:06;;;;;;;33.33;22.33;;;20.90;75.00;;;;;;5062081;28;20268;-65
2022/10/12 09:15:38;;;;;;;36.23;23.83;;;21.00;74.30;;;;;;5056249;28;20321;-67
2022/10/12 09:18:19;;;;;;;30.87;22.27;;;21.10;73.80;;;;;;5060036;28;20255;-65
2022/10/12 09:20:53;;;;;;;36.73;22.47;;;21.30;73.50;;;;;;5059824;28;20254;-66
2022/10/12 09:23:23;;;;;;;37.63;21.67;;;21.40;73.00;;;;;;5047286;28;20213;-65
2022/10/12 09:25:57;;;;;;;39.97;21.50;;;21.60;72.20;;;;;;5060499;28;20218;-64
2022/10/12 09:28:27;;;;;;;30.93;22.47;;;21.70;71.80;;;;;;5060403;28;20646;-68
2022/10/12 09:31:22;;;;;;;21.13;17.87;;;21.80;71.20;;;;;;5060727;28;21093;-65
2022/10/12 09:33:53;;;;;;;29.93;19.67;;;21.90;70.70;;;;;;5058519;28;20264;-68
2022/10/12 09:36:22;;;;;;;26.90;17.77;;;21.90;70.70;;;;;;5061630;28;20231;-68
2022/10/12 09:38:50;;;;;;;28.80;18.80;;;21.90;71.20;;;;;;5059034;28;20207;-68
2022/10/12 09:41:46;;;;;;;28.13;17.87;;;21.90;70.70;;;;;;5055298;28;20209;-66
2022/10/12 09:44:46;;;;;;;25.30;17.93;;;22.00;70.30;;;;;;5055943;28;20209;-66
2022/10/12 09:47:30;;;;;;;25.17;17.27;;;22.10;69.90;;;;;;5063945;28;20256;-66
2022/10/12 09:50:03;;;;;;;25.33;15.77;;;22.20;69.10;;;;;;5060726;28;20271;-66
2022/10/12 09:52:35;;;;;;;24.97;17.13;;;22.20;69.30;;;;;;5060416;28;20257;-63
2022/10/12 09:55:13;;;;;;;20.53;16.77;;;22.30;69.50;;;;;;5060610;28;20203;-67
2022/10/12 09:57:49;;;;;;;21.83;15.00;;;22.40;69.30;;;;;;5057382;28;20242;-65
2022/10/12 10:00:27;;;;;;;22.33;14.20;;;22.50;68.40;;;;;;5060428;28;20528;-64
2022/10/12 10:02:55;;;;;;;22.53;14.87;;;22.50;68.70;;;;;;5058928;28;20328;-67
2022/10/12 10:05:27;;;;;;;18.87;13.93;;;22.60;68.20;;;;;;5060311;28;20753;-64
2022/10/12 10:08:22;;;;;;;17.43;12.60;;;22.60;68.20;;;;;;5056666;28;20195;-65
2022/10/12 10:10:51;;;;;;;17.13;14.67;;;22.70;68.30;;;;;;5046027;28;20667;-65
2022/10/12 10:13:20;;;;;;;18.67;14.10;;;22.80;68.40;;;;;;5056887;28;20580;-65
2022/10/12 10:16:02;;;;;;;18.43;12.50;;;22.90;68.30;;;;;;5053435;28;20198;-64
2022/10/12 10:18:35;;;;;;;16.33;12.23;;;23.00;66.80;;;;;;5060086;28;20689;-66
2022/10/12 10:21:06;;;;;;;21.27;12.80;;;23.10;66.40;;;;;;5058258;28;20288;-66
2022/10/12 10:23:42;;;;;;;23.37;13.03;;;23.10;65.70;;;;;;5061363;28;20263;-65
2022/10/12 10:26:15;;;;;;;18.67;13.20;;;23.10;66.50;;;;;;5060972;28;20576;-63
2022/10/12 10:28:49;;;;;;;18.23;12.73;;;23.20;66.10;;;;;;5057970;28;20667;-66
2022/10/12 10:31:24;;;;;;;18.20;12.43;;;23.30;66.20;;;;;;5061562;28;20210;-66
2022/10/12 10:34:06;;;;;;;24.27;11.53;;;23.30;65.30;;;;;;5054340;28;20247;-65
2022/10/12 10:36:37;;;;;;;18.07;12.20;;;23.40;65.40;;;;;;5038797;28;20257;-66
2022/10/12 10:39:13;;;;;;;14.47;11.17;;;23.50;65.60;;;;;;5060319;28;20689;-65
2022/10/12 10:41:42;;;;;;;18.17;11.63;;;23.60;65.20;;;;;;5058664;28;20593;-67
2022/10/12 10:44:26;;;;;;;16.40;10.10;;;23.70;65.10;;;;;;5052520;28;20206;-67
2022/10/12 10:46:55;;;;;;;13.03;9.77;;;23.80;65.10;;;;;;5059423;28;20659;-67
2022/10/12 10:49:28;;;;;;;19.33;8.97;;;23.90;65.10;;;;;;5058812;28;20218;-67
2022/10/12 10:51:58;;;;;;;14.87;10.07;;;23.90;63.30;;;;;;5060036;28;20205;-67
2022/10/12 10:54:29;;;;;;;12.47;8.70;;;24.00;63.40;;;;;;5060828;28;20202;-67
2022/10/12 10:57:11;;;;;;;20.60;9.97;;;24.00;63.20;;;;;;5056098;28;20230;-66
2022/10/12 10:59:49;;;;;;;15.73;8.80;;;24.10;63.40;;;;;;5049765;28;20241;-67
2022/10/12 11:02:42;;;;;;;17.60;9.20;;;24.10;63.10;;;;;;5059062;28;20223;-67
2022/10/12 11:05:22;;;;;;;10.27;8.07;;;24.20;62.20;;;;;;5060766;28;20221;-67
2022/10/12 11:07:57;;;;;;;16.30;8.90;;;24.20;61.30;;;;;;5058190;28;20206;-67
2022/10/12 11:10:27;;;;;;;12.57;8.70;;;24.20;61.90;;;;;;5059283;28;20217;-67
2022/10/12 11:13:17;;;;;;;18.03;8.67;;;24.10;61.70;;;;;;5058492;28;20263;-68
2022/10/12 11:15:50;;;;;;;16.47;9.47;;;24.20;62.40;;;;;;5056904;28;20194;-67
2022/10/12 11:18:24;;;;;;;14.33;8.87;;;24.30;62.70;;;;;;5058915;28;20198;-67
2022/10/12 11:20:58;;;;;;;14.23;8.70;;;24.40;61.60;;;;;;5051431;28;20727;-67
2022/10/12 11:23:36;;;;;;;12.20;8.33;;;24.50;60.60;;;;;;5058553;28;20635;-67
2022/10/12 11:26:20;;;;;;;14.90;8.03;;;24.50;59.40;;;;;;5058587;28;20204;-67
2022/10/12 11:28:48;;;;;;;13.23;7.37;;;24.50;59.20;;;;;;5054075;28;20271;-67
2022/10/12 11:31:38;;;;;;;10.57;6.63;;;24.60;59.70;;;;;;5059589;28;20195;-68
2022/10/12 11:34:12;;;;;;;12.93;7.57;;;24.60;59.30;;;;;;5059447;28;20202;-67
2022/10/12 11:36:44;;;;;;;12.63;7.20;;;24.70;58.60;;;;;;5058550;28;20253;-67
2022/10/12 11:39:37;;;;;;;9.90;7.10;;;24.80;58.10;;;;;;5059116;28;20695;-67
2022/10/12 11:42:09;;;;;;;10.83;7.53;;;25.00;58.10;;;;;;5059072;28;20233;-67
2022/10/12 11:44:48;;;;;;;13.67;6.77;;;25.00;57.50;;;;;;5058676;28;20285;-68
2022/10/12 11:47:37;;;;;;;15.90;8.00;;;25.10;57.70;;;;;;5061793;28;20197;-67
2022/10/12 11:50:18;;;;;;;10.53;6.43;;;25.20;57.80;;;;;;5059741;28;20292;-67
2022/10/12 11:52:48;;;;;;;13.97;6.60;;;25.30;57.70;;;;;;5056154;28;20197;-68
2022/10/12 11:55:45;;;;;;;9.63;6.80;;;25.40;57.30;;;;;;5061078;28;20574;-67
2022/10/12 11:58:27;;;;;;;10.73;6.70;;;25.40;56.80;;;;;;5016143;28;20560;-67
2022/10/12 12:01:38;;;;;;;17.70;7.60;;;25.50;57.20;;;;;;5057112;28;20201;-68
2022/10/12 12:04:31;;;;;;;10.97;6.53;;;25.40;57.10;;;;;;5060746;28;20199;-67
2022/10/12 12:07:35;;;;;;;15.63;6.80;;;25.50;57.00;;;;;;5059020;28;20213;-67
2022/10/12 12:10:24;;;;;;;13.83;6.53;;;25.50;56.50;;;;;;5060265;28;20237;-68
2022/10/12 12:13:11;;;;;;;17.47;7.63;;;25.50;56.20;;;;;;5055894;28;20214;-67
2022/10/12 12:15:45;;;;;;;9.57;5.97;;;25.50;56.70;;;;;;5058823;28;20517;-67
2022/10/12 12:18:24;;;;;;;13.30;6.63;;;25.50;56.20;;;;;;5062894;28;20207;-67
2022/10/12 12:21:02;;;;;;;10.50;6.73;;;25.60;56.40;;;;;;5064688;28;20205;-67
2022/10/12 12:23:38;;;;;;;9.73;6.23;;;25.50;55.50;;;;;;5062424;28;20210;-67
2022/10/12 12:26:08;;;;;;;13.43;5.77;;;25.50;55.50;;;;;;5061322;28;20196;-67
2022/10/12 12:28:51;;;;;;;9.73;5.77;;;25.40;55.10;;;;;;5053300;28;20606;-67
2022/10/12 12:31:21;;;;;;;10.10;5.30;;;25.40;54.10;;;;;;5046346;28;20225;-67
2022/10/12 12:34:01;;;;;;;9.97;4.73;;;25.40;54.40;;;;;;5059896;28;20222;-67
2022/10/12 12:36:32;;;;;;;13.60;5.50;;;25.40;54.70;;;;;;5057967;28;20194;-67
2022/10/12 12:39:00;;;;;;;9.23;4.40;;;25.40;55.30;;;;;;5062539;28;20198;-67
2022/10/12 12:41:53;;;;;;;11.13;4.77;;;25.50;53.90;;;;;;5061658;28;20243;-67
2022/10/12 12:44:42;;;;;;;7.07;5.37;;;25.40;54.50;;;;;;5059491;28;20216;-67
2022/10/12 12:47:09;;;;;;;16.83;5.70;;;25.30;55.30;;;;;;5060468;28;20205;-68
2022/10/12 12:49:59;;;;;;;7.87;5.43;;;25.40;55.30;;;;;;5056640;28;20220;-67
2022/10/12 12:52:37;;;;;;;8.20;5.37;;;25.40;55.30;;;;;;5054488;28;20199;-67
2022/10/12 12:55:13;;;;;;;9.77;4.97;;;25.40;55.60;;;;;;5060496;28;20471;-67